sensor_id;sensor_type;location;lat;lon;timestamp;P1;durP1;ratioP1;P2;durP2;ratioP2
39518;SDS011;25200;53.394;10.414;2022-11-06T00:00:53;8.35;;;3.33;;
39518;SDS011;25200;53.394;10.414;2022-11-06T00:03:19;9.55;;;2.80;;
39518;SDS011;25200;53.394;10.414;2022-11-06T00:05:45;10.43;;;3.38;;
39518;SDS011;25200;53.394;10.414;2022-11-06T00:08:31;9.98;;;3.05;;
39518;SDS011;25200;53.394;10.414;2022-11-06T00:10:58;6.03;;;2.70;;
39518;SDS011;25200;53.394;10.414;2022-11-06T00:13:24;5.45;;;2.88;;
39518;SDS011;25200;53.394;10.414;2022-11-06T00:15:50;7.72;;;2.72;;
39518;SDS011;25200;53.394;10.414;2022-11-06T00:18:16;8.02;;;2.88;;
39518;SDS011;25200;53.394;10.414;2022-11-06T00:20:42;10.32;;;2.95;;
39518;SDS011;25200;53.394;10.414;2022-11-06T00:23:08;5.47;;;2.65;;
39518;SDS011;25200;53.394;10.414;2022-11-06T00:25:33;6.30;;;2.80;;
39518;SDS011;25200;53.394;10.414;2022-11-06T00:27:59;6.05;;;2.60;;
39518;SDS011;25200;53.394;10.414;2022-11-06T00:30:25;6.70;;;2.58;;
39518;SDS011;25200;53.394;10.414;2022-11-06T00:32:50;7.82;;;2.63;;
39518;SDS011;25200;53.394;10.414;2022-11-06T00:35:16;7.53;;;2.70;;
39518;SDS011;25200;53.394;10.414;2022-11-06T00:37:42;15.02;;;3.25;;
39518;SDS011;25200;53.394;10.414;2022-11-06T00:40:07;7.05;;;2.63;;
39518;SDS011;25200;53.394;10.414;2022-11-06T00:42:33;7.43;;;2.95;;
39518;SDS011;25200;53.394;10.414;2022-11-06T00:44:59;9.07;;;2.78;;
39518;SDS011;25200;53.394;10.414;2022-11-06T00:47:25;6.80;;;2.80;;
39518;SDS011;25200;53.394;10.414;2022-11-06T00:49:50;5.93;;;2.60;;
39518;SDS011;25200;53.394;10.414;2022-11-06T00:52:16;6.65;;;2.55;;
39518;SDS011;25200;53.394;10.414;2022-11-06T00:54:41;6.90;;;2.90;;
39518;SDS011;25200;53.394;10.414;2022-11-06T00:57:07;6.28;;;2.60;;
39518;SDS011;25200;53.394;10.414;2022-11-06T00:59:33;7.30;;;2.80;;
39518;SDS011;25200;53.394;10.414;2022-11-06T01:01:58;6.20;;;2.60;;
39518;SDS011;25200;53.394;10.414;2022-11-06T01:04:24;6.55;;;2.60;;
39518;SDS011;25200;53.394;10.414;2022-11-06T01:06:50;8.13;;;2.85;;
39518;SDS011;25200;53.394;10.414;2022-11-06T01:09:19;6.97;;;2.60;;
39518;SDS011;25200;53.394;10.414;2022-11-06T01:11:47;8.55;;;2.83;;
39518;SDS011;25200;53.394;10.414;2022-11-06T01:14:15;5.88;;;2.90;;
39518;SDS011;25200;53.394;10.414;2022-11-06T01:16:41;6.63;;;2.53;;
39518;SDS011;25200;53.394;10.414;2022-11-06T01:19:07;8.38;;;2.83;;
39518;SDS011;25200;53.394;10.414;2022-11-06T01:21:37;7.45;;;2.70;;
39518;SDS011;25200;53.394;10.414;2022-11-06T01:24:05;6.43;;;2.72;;
39518;SDS011;25200;53.394;10.414;2022-11-06T01:26:34;5.45;;;2.58;;
39518;SDS011;25200;53.394;10.414;2022-11-06T01:29:00;9.70;;;2.67;;
39518;SDS011;25200;53.394;10.414;2022-11-06T01:31:28;8.43;;;2.65;;
39518;SDS011;25200;53.394;10.414;2022-11-06T01:33:55;7.72;;;2.58;;
39518;SDS011;25200;53.394;10.414;2022-11-06T01:36:22;9.15;;;2.67;;
39518;SDS011;25200;53.394;10.414;2022-11-06T01:38:50;6.28;;;2.70;;
39518;SDS011;25200;53.394;10.414;2022-11-06T01:41:21;6.22;;;2.80;;
39518;SDS011;25200;53.394;10.414;2022-11-06T01:43:59;9.25;;;3.00;;
39518;SDS011;25200;53.394;10.414;2022-11-06T01:46:28;5.20;;;2.35;;
39518;SDS011;25200;53.394;10.414;2022-11-06T01:49:00;5.55;;;2.50;;
39518;SDS011;25200;53.394;10.414;2022-11-06T01:51:32;7.65;;;3.08;;
39518;SDS011;25200;53.394;10.414;2022-11-06T01:54:06;6.80;;;2.80;;
39518;SDS011;25200;53.394;10.414;2022-11-06T01:56:34;6.75;;;2.90;;
39518;SDS011;25200;53.394;10.414;2022-11-06T01:59:02;5.30;;;2.50;;
39518;SDS011;25200;53.394;10.414;2022-11-06T02:01:29;7.45;;;2.65;;
39518;SDS011;25200;53.394;10.414;2022-11-06T02:04:29;5.47;;;2.40;;
39518;SDS011;25200;53.394;10.414;2022-11-06T02:09:16;5.95;;;2.33;;
39518;SDS011;25200;53.394;10.414;2022-11-06T02:11:44;7.85;;;2.60;;
39518;SDS011;25200;53.394;10.414;2022-11-06T02:16:53;7.50;;;2.92;;
39518;SDS011;25200;53.394;10.414;2022-11-06T02:19:37;7.10;;;2.70;;
39518;SDS011;25200;53.394;10.414;2022-11-06T02:24:59;6.20;;;2.50;;
39518;SDS011;25200;53.394;10.414;2022-11-06T02:27:37;7.20;;;2.60;;
39518;SDS011;25200;53.394;10.414;2022-11-06T02:30:10;6.43;;;2.40;;
39518;SDS011;25200;53.394;10.414;2022-11-06T02:32:38;5.47;;;2.55;;
39518;SDS011;25200;53.394;10.414;2022-11-06T02:35:12;7.88;;;2.45;;
39518;SDS011;25200;53.394;10.414;2022-11-06T02:37:40;6.45;;;2.65;;
39518;SDS011;25200;53.394;10.414;2022-11-06T02:40:08;6.82;;;2.30;;
39518;SDS011;25200;53.394;10.414;2022-11-06T02:42:39;8.38;;;2.67;;
39518;SDS011;25200;53.394;10.414;2022-11-06T02:45:09;5.57;;;2.53;;
39518;SDS011;25200;53.394;10.414;2022-11-06T02:47:37;6.18;;;2.53;;
39518;SDS011;25200;53.394;10.414;2022-11-06T02:50:06;9.38;;;2.97;;
39518;SDS011;25200;53.394;10.414;2022-11-06T02:52:47;6.10;;;2.50;;
39518;SDS011;25200;53.394;10.414;2022-11-06T02:55:39;4.82;;;2.30;;
39518;SDS011;25200;53.394;10.414;2022-11-06T02:58:38;7.65;;;2.58;;
39518;SDS011;25200;53.394;10.414;2022-11-06T03:03:49;8.50;;;2.40;;
39518;SDS011;25200;53.394;10.414;2022-11-06T03:06:20;9.13;;;2.80;;
39518;SDS011;25200;53.394;10.414;2022-11-06T03:09:01;8.23;;;2.60;;
39518;SDS011;25200;53.394;10.414;2022-11-06T03:11:32;8.40;;;2.38;;
39518;SDS011;25200;53.394;10.414;2022-11-06T03:16:59;6.90;;;2.40;;
39518;SDS011;25200;53.394;10.414;2022-11-06T03:23:09;6.43;;;2.50;;
39518;SDS011;25200;53.394;10.414;2022-11-06T03:25:43;5.05;;;2.33;;
39518;SDS011;25200;53.394;10.414;2022-11-06T03:30:51;7.35;;;2.33;;
39518;SDS011;25200;53.394;10.414;2022-11-06T03:33:21;9.13;;;2.58;;
39518;SDS011;25200;53.394;10.414;2022-11-06T03:35:54;7.60;;;2.33;;
39518;SDS011;25200;53.394;10.414;2022-11-06T03:38:28;7.25;;;2.25;;
39518;SDS011;25200;53.394;10.414;2022-11-06T03:40:58;6.28;;;2.38;;
39518;SDS011;25200;53.394;10.414;2022-11-06T03:43:28;6.15;;;2.08;;
39518;SDS011;25200;53.394;10.414;2022-11-06T03:45:58;9.45;;;2.40;;
39518;SDS011;25200;53.394;10.414;2022-11-06T03:48:33;6.75;;;2.75;;
39518;SDS011;25200;53.394;10.414;2022-11-06T03:51:07;7.00;;;2.35;;
39518;SDS011;25200;53.394;10.414;2022-11-06T03:53:43;4.40;;;1.92;;
39518;SDS011;25200;53.394;10.414;2022-11-06T03:56:14;5.78;;;2.50;;
39518;SDS011;25200;53.394;10.414;2022-11-06T03:58:44;6.88;;;2.47;;
39518;SDS011;25200;53.394;10.414;2022-11-06T04:01:12;8.95;;;2.28;;
39518;SDS011;25200;53.394;10.414;2022-11-06T04:03:43;6.55;;;2.28;;
39518;SDS011;25200;53.394;10.414;2022-11-06T04:06:19;5.38;;;2.38;;
39518;SDS011;25200;53.394;10.414;2022-11-06T04:08:50;6.75;;;2.28;;
39518;SDS011;25200;53.394;10.414;2022-11-06T04:11:36;6.45;;;2.50;;
39518;SDS011;25200;53.394;10.414;2022-11-06T04:14:22;7.05;;;2.10;;
39518;SDS011;25200;53.394;10.414;2022-11-06T04:16:52;6.63;;;2.20;;
39518;SDS011;25200;53.394;10.414;2022-11-06T04:19:21;6.78;;;2.35;;
39518;SDS011;25200;53.394;10.414;2022-11-06T04:35:00;8.70;;;2.50;;
39518;SDS011;25200;53.394;10.414;2022-11-06T04:37:35;6.93;;;2.22;;
39518;SDS011;25200;53.394;10.414;2022-11-06T04:40:16;8.32;;;2.15;;
39518;SDS011;25200;53.394;10.414;2022-11-06T04:42:58;5.22;;;2.05;;
39518;SDS011;25200;53.394;10.414;2022-11-06T04:48:01;8.52;;;2.50;;
39518;SDS011;25200;53.394;10.414;2022-11-06T04:50:29;7.03;;;2.28;;
39518;SDS011;25200;53.394;10.414;2022-11-06T04:52:59;6.68;;;2.63;;
39518;SDS011;25200;53.394;10.414;2022-11-06T04:55:28;7.32;;;2.03;;
39518;SDS011;25200;53.394;10.414;2022-11-06T04:57:54;5.57;;;2.22;;
39518;SDS011;25200;53.394;10.414;2022-11-06T05:00:20;5.05;;;2.30;;
39518;SDS011;25200;53.394;10.414;2022-11-06T05:02:45;5.88;;;2.20;;
39518;SDS011;25200;53.394;10.414;2022-11-06T05:05:11;6.63;;;2.45;;
39518;SDS011;25200;53.394;10.414;2022-11-06T05:07:37;8.85;;;2.60;;
39518;SDS011;25200;53.394;10.414;2022-11-06T05:10:03;5.05;;;2.35;;
39518;SDS011;25200;53.394;10.414;2022-11-06T05:12:29;5.88;;;2.40;;
39518;SDS011;25200;53.394;10.414;2022-11-06T05:14:54;7.28;;;2.40;;
39518;SDS011;25200;53.394;10.414;2022-11-06T05:17:20;8.23;;;2.53;;
39518;SDS011;25200;53.394;10.414;2022-11-06T05:19:46;6.97;;;2.45;;
39518;SDS011;25200;53.394;10.414;2022-11-06T05:22:11;5.35;;;2.70;;
39518;SDS011;25200;53.394;10.414;2022-11-06T05:24:55;8.20;;;2.50;;
39518;SDS011;25200;53.394;10.414;2022-11-06T05:27:21;6.93;;;2.45;;
39518;SDS011;25200;53.394;10.414;2022-11-06T05:29:47;7.22;;;2.80;;
39518;SDS011;25200;53.394;10.414;2022-11-06T05:32:12;7.68;;;2.40;;
39518;SDS011;25200;53.394;10.414;2022-11-06T05:34:38;7.68;;;2.33;;
39518;SDS011;25200;53.394;10.414;2022-11-06T05:37:06;4.82;;;2.30;;
39518;SDS011;25200;53.394;10.414;2022-11-06T05:39:31;6.13;;;2.40;;
39518;SDS011;25200;53.394;10.414;2022-11-06T05:41:57;6.30;;;2.45;;
39518;SDS011;25200;53.394;10.414;2022-11-06T05:44:23;6.63;;;2.33;;
39518;SDS011;25200;53.394;10.414;2022-11-06T05:46:48;5.68;;;2.10;;
39518;SDS011;25200;53.394;10.414;2022-11-06T05:49:14;4.63;;;2.20;;
39518;SDS011;25200;53.394;10.414;2022-11-06T05:51:40;4.97;;;2.38;;
39518;SDS011;25200;53.394;10.414;2022-11-06T05:54:05;7.30;;;2.42;;
39518;SDS011;25200;53.394;10.414;2022-11-06T05:56:31;5.55;;;2.28;;
39518;SDS011;25200;53.394;10.414;2022-11-06T05:58:57;7.82;;;2.33;;
39518;SDS011;25200;53.394;10.414;2022-11-06T06:01:22;5.88;;;2.38;;
39518;SDS011;25200;53.394;10.414;2022-11-06T06:03:48;6.07;;;2.20;;
39518;SDS011;25200;53.394;10.414;2022-11-06T06:06:13;7.22;;;2.15;;
39518;SDS011;25200;53.394;10.414;2022-11-06T06:08:39;5.35;;;2.25;;
39518;SDS011;25200;53.394;10.414;2022-11-06T06:11:05;5.90;;;2.22;;
39518;SDS011;25200;53.394;10.414;2022-11-06T06:13:31;6.13;;;2.40;;
39518;SDS011;25200;53.394;10.414;2022-11-06T06:15:59;9.75;;;2.33;;
39518;SDS011;25200;53.394;10.414;2022-11-06T06:18:26;6.18;;;2.20;;
39518;SDS011;25200;53.394;10.414;2022-11-06T06:20:52;5.10;;;2.33;;
39518;SDS011;25200;53.394;10.414;2022-11-06T06:23:18;10.68;;;2.47;;
39518;SDS011;25200;53.394;10.414;2022-11-06T06:25:43;7.47;;;2.42;;
39518;SDS011;25200;53.394;10.414;2022-11-06T06:28:09;4.80;;;2.30;;
39518;SDS011;25200;53.394;10.414;2022-11-06T06:30:34;9.32;;;2.70;;
39518;SDS011;25200;53.394;10.414;2022-11-06T06:33:04;5.63;;;2.38;;
39518;SDS011;25200;53.394;10.414;2022-11-06T06:35:30;8.45;;;2.80;;
39518;SDS011;25200;53.394;10.414;2022-11-06T06:37:56;7.38;;;2.70;;
39518;SDS011;25200;53.394;10.414;2022-11-06T06:40:22;6.25;;;2.83;;
39518;SDS011;25200;53.394;10.414;2022-11-06T06:42:47;6.25;;;2.83;;
39518;SDS011;25200;53.394;10.414;2022-11-06T06:45:13;6.20;;;2.83;;
39518;SDS011;25200;53.394;10.414;2022-11-06T06:47:40;6.05;;;2.55;;
39518;SDS011;25200;53.394;10.414;2022-11-06T06:50:06;5.65;;;2.42;;
39518;SDS011;25200;53.394;10.414;2022-11-06T06:52:32;6.45;;;2.33;;
39518;SDS011;25200;53.394;10.414;2022-11-06T06:54:58;5.93;;;2.40;;
39518;SDS011;25200;53.394;10.414;2022-11-06T06:57:23;8.82;;;2.47;;
39518;SDS011;25200;53.394;10.414;2022-11-06T06:59:49;7.40;;;2.22;;
39518;SDS011;25200;53.394;10.414;2022-11-06T07:02:15;5.78;;;2.40;;
39518;SDS011;25200;53.394;10.414;2022-11-06T07:04:40;6.40;;;2.45;;
39518;SDS011;25200;53.394;10.414;2022-11-06T07:07:06;6.10;;;2.30;;
39518;SDS011;25200;53.394;10.414;2022-11-06T07:09:32;6.22;;;2.65;;
39518;SDS011;25200;53.394;10.414;2022-11-06T07:11:57;6.82;;;2.50;;
39518;SDS011;25200;53.394;10.414;2022-11-06T07:14:23;6.88;;;2.50;;
39518;SDS011;25200;53.394;10.414;2022-11-06T07:16:49;9.30;;;2.67;;
39518;SDS011;25200;53.394;10.414;2022-11-06T07:19:15;4.32;;;2.28;;
39518;SDS011;25200;53.394;10.414;2022-11-06T07:21:41;6.35;;;2.63;;
39518;SDS011;25200;53.394;10.414;2022-11-06T07:24:07;5.43;;;2.30;;
39518;SDS011;25200;53.394;10.414;2022-11-06T07:26:32;5.45;;;2.08;;
39518;SDS011;25200;53.394;10.414;2022-11-06T07:28:58;7.93;;;2.30;;
39518;SDS011;25200;53.394;10.414;2022-11-06T07:31:24;9.75;;;1.95;;
39518;SDS011;25200;53.394;10.414;2022-11-06T07:33:49;6.85;;;2.20;;
39518;SDS011;25200;53.394;10.414;2022-11-06T07:36:15;7.70;;;2.65;;
39518;SDS011;25200;53.394;10.414;2022-11-06T07:38:41;8.90;;;2.40;;
39518;SDS011;25200;53.394;10.414;2022-11-06T07:41:09;7.13;;;2.40;;
39518;SDS011;25200;53.394;10.414;2022-11-06T07:43:36;6.72;;;2.50;;
39518;SDS011;25200;53.394;10.414;2022-11-06T07:46:04;5.68;;;2.20;;
39518;SDS011;25200;53.394;10.414;2022-11-06T07:48:31;5.10;;;2.33;;
39518;SDS011;25200;53.394;10.414;2022-11-06T07:50:57;6.03;;;2.28;;
39518;SDS011;25200;53.394;10.414;2022-11-06T07:53:25;5.57;;;1.95;;
39518;SDS011;25200;53.394;10.414;2022-11-06T07:55:52;5.90;;;2.25;;
39518;SDS011;25200;53.394;10.414;2022-11-06T07:58:19;6.68;;;2.58;;
39518;SDS011;25200;53.394;10.414;2022-11-06T08:00:46;7.05;;;2.30;;
39518;SDS011;25200;53.394;10.414;2022-11-06T08:03:12;7.55;;;2.50;;
39518;SDS011;25200;53.394;10.414;2022-11-06T08:05:38;7.47;;;2.50;;
39518;SDS011;25200;53.394;10.414;2022-11-06T08:08:04;8.05;;;2.30;;
39518;SDS011;25200;53.394;10.414;2022-11-06T08:10:29;8.20;;;2.20;;
39518;SDS011;25200;53.394;10.414;2022-11-06T08:12:55;6.40;;;2.08;;
39518;SDS011;25200;53.394;10.414;2022-11-06T08:15:23;4.53;;;1.90;;
39518;SDS011;25200;53.394;10.414;2022-11-06T08:17:49;6.97;;;2.65;;
39518;SDS011;25200;53.394;10.414;2022-11-06T08:20:15;5.03;;;2.20;;
39518;SDS011;25200;53.394;10.414;2022-11-06T08:22:40;10.45;;;2.30;;
39518;SDS011;25200;53.394;10.414;2022-11-06T08:25:06;9.98;;;2.35;;
39518;SDS011;25200;53.394;10.414;2022-11-06T08:27:32;11.18;;;2.30;;
39518;SDS011;25200;53.394;10.414;2022-11-06T08:29:58;6.70;;;2.20;;
39518;SDS011;25200;53.394;10.414;2022-11-06T08:32:24;5.55;;;1.98;;
39518;SDS011;25200;53.394;10.414;2022-11-06T08:34:49;5.20;;;1.90;;
39518;SDS011;25200;53.394;10.414;2022-11-06T08:37:15;5.93;;;2.13;;
39518;SDS011;25200;53.394;10.414;2022-11-06T08:39:40;5.18;;;2.20;;
39518;SDS011;25200;53.394;10.414;2022-11-06T08:42:08;4.88;;;2.30;;
39518;SDS011;25200;53.394;10.414;2022-11-06T08:44:34;7.13;;;2.65;;
39518;SDS011;25200;53.394;10.414;2022-11-06T08:46:59;6.85;;;2.15;;
39518;SDS011;25200;53.394;10.414;2022-11-06T08:49:25;7.72;;;2.47;;
39518;SDS011;25200;53.394;10.414;2022-11-06T08:51:51;10.77;;;2.00;;
39518;SDS011;25200;53.394;10.414;2022-11-06T08:54:17;5.15;;;2.05;;
39518;SDS011;25200;53.394;10.414;2022-11-06T08:56:43;8.02;;;2.38;;
39518;SDS011;25200;53.394;10.414;2022-11-06T08:59:09;6.82;;;2.30;;
39518;SDS011;25200;53.394;10.414;2022-11-06T09:01:34;6.07;;;2.20;;
39518;SDS011;25200;53.394;10.414;2022-11-06T09:04:00;4.57;;;1.75;;
39518;SDS011;25200;53.394;10.414;2022-11-06T09:06:26;6.60;;;2.05;;
39518;SDS011;25200;53.394;10.414;2022-11-06T09:08:51;5.97;;;2.15;;
39518;SDS011;25200;53.394;10.414;2022-11-06T09:11:17;7.82;;;2.20;;
39518;SDS011;25200;53.394;10.414;2022-11-06T09:13:43;7.75;;;1.90;;
39518;SDS011;25200;53.394;10.414;2022-11-06T09:16:08;8.48;;;2.10;;
39518;SDS011;25200;53.394;10.414;2022-11-06T09:18:34;5.15;;;1.90;;
39518;SDS011;25200;53.394;10.414;2022-11-06T09:20:59;5.32;;;1.90;;
39518;SDS011;25200;53.394;10.414;2022-11-06T09:23:25;5.63;;;1.83;;
39518;SDS011;25200;53.394;10.414;2022-11-06T09:25:51;6.18;;;2.00;;
39518;SDS011;25200;53.394;10.414;2022-11-06T09:28:17;5.68;;;1.90;;
39518;SDS011;25200;53.394;10.414;2022-11-06T09:30:42;6.72;;;2.17;;
39518;SDS011;25200;53.394;10.414;2022-11-06T09:33:08;5.90;;;2.35;;
39518;SDS011;25200;53.394;10.414;2022-11-06T09:35:34;7.72;;;2.40;;
39518;SDS011;25200;53.394;10.414;2022-11-06T09:38:01;5.15;;;2.25;;
39518;SDS011;25200;53.394;10.414;2022-11-06T09:45:37;6.68;;;2.25;;
39518;SDS011;25200;53.394;10.414;2022-11-06T09:50:34;6.43;;;2.30;;
39518;SDS011;25200;53.394;10.414;2022-11-06T09:53:13;7.57;;;1.90;;
39518;SDS011;25200;53.394;10.414;2022-11-06T09:55:44;5.88;;;1.92;;
39518;SDS011;25200;53.394;10.414;2022-11-06T09:58:16;5.05;;;2.03;;
39518;SDS011;25200;53.394;10.414;2022-11-06T10:00:49;5.70;;;1.85;;
39518;SDS011;25200;53.394;10.414;2022-11-06T10:03:18;4.90;;;2.03;;
39518;SDS011;25200;53.394;10.414;2022-11-06T10:05:49;6.22;;;1.95;;
39518;SDS011;25200;53.394;10.414;2022-11-06T10:08:24;6.68;;;1.85;;
39518;SDS011;25200;53.394;10.414;2022-11-06T10:11:00;5.75;;;2.08;;
39518;SDS011;25200;53.394;10.414;2022-11-06T10:19:02;7.18;;;2.03;;
39518;SDS011;25200;53.394;10.414;2022-11-06T10:24:19;4.70;;;1.80;;
39518;SDS011;25200;53.394;10.414;2022-11-06T10:27:01;6.47;;;2.30;;
39518;SDS011;25200;53.394;10.414;2022-11-06T10:32:04;5.28;;;1.92;;
39518;SDS011;25200;53.394;10.414;2022-11-06T10:34:45;4.78;;;1.70;;
39518;SDS011;25200;53.394;10.414;2022-11-06T10:39:49;4.18;;;1.83;;
39518;SDS011;25200;53.394;10.414;2022-11-06T10:42:19;5.53;;;1.90;;
39518;SDS011;25200;53.394;10.414;2022-11-06T10:47:23;4.85;;;1.88;;
39518;SDS011;25200;53.394;10.414;2022-11-06T10:49:57;4.78;;;1.70;;
39518;SDS011;25200;53.394;10.414;2022-11-06T10:52:36;6.07;;;2.00;;
39518;SDS011;25200;53.394;10.414;2022-11-06T10:58:28;4.93;;;1.80;;
39518;SDS011;25200;53.394;10.414;2022-11-06T11:00:57;5.15;;;1.80;;
39518;SDS011;25200;53.394;10.414;2022-11-06T11:05:58;4.07;;;1.73;;
39518;SDS011;25200;53.394;10.414;2022-11-06T11:11:03;2.78;;;1.40;;
39518;SDS011;25200;53.394;10.414;2022-11-06T11:13:38;4.20;;;1.52;;
39518;SDS011;25200;53.394;10.414;2022-11-06T11:16:15;3.85;;;1.40;;
39518;SDS011;25200;53.394;10.414;2022-11-06T11:18:44;5.22;;;1.85;;
39518;SDS011;25200;53.394;10.414;2022-11-06T11:21:14;5.25;;;1.85;;
39518;SDS011;25200;53.394;10.414;2022-11-06T11:24:06;4.93;;;1.35;;
39518;SDS011;25200;53.394;10.414;2022-11-06T11:26:42;5.38;;;1.90;;
39518;SDS011;25200;53.394;10.414;2022-11-06T11:31:54;6.88;;;1.60;;
39518;SDS011;25200;53.394;10.414;2022-11-06T11:34:27;4.72;;;1.60;;
39518;SDS011;25200;53.394;10.414;2022-11-06T11:36:56;4.80;;;1.83;;
39518;SDS011;25200;53.394;10.414;2022-11-06T11:39:28;3.92;;;1.67;;
39518;SDS011;25200;53.394;10.414;2022-11-06T11:42:14;5.00;;;1.63;;
39518;SDS011;25200;53.394;10.414;2022-11-06T11:44:46;5.35;;;1.77;;
39518;SDS011;25200;53.394;10.414;2022-11-06T11:47:21;4.53;;;1.90;;
39518;SDS011;25200;53.394;10.414;2022-11-06T11:49:48;6.55;;;1.50;;
39518;SDS011;25200;53.394;10.414;2022-11-06T11:52:16;3.45;;;1.60;;
39518;SDS011;25200;53.394;10.414;2022-11-06T11:54:46;6.35;;;1.55;;
39518;SDS011;25200;53.394;10.414;2022-11-06T11:57:19;5.25;;;1.90;;
39518;SDS011;25200;53.394;10.414;2022-11-06T11:59:55;6.85;;;1.80;;
39518;SDS011;25200;53.394;10.414;2022-11-06T12:02:28;6.47;;;2.03;;
39518;SDS011;25200;53.394;10.414;2022-11-06T12:05:05;5.78;;;2.20;;
39518;SDS011;25200;53.394;10.414;2022-11-06T12:07:36;4.80;;;1.90;;
39518;SDS011;25200;53.394;10.414;2022-11-06T12:12:47;8.75;;;2.30;;
39518;SDS011;25200;53.394;10.414;2022-11-06T12:15:16;9.93;;;2.08;;
39518;SDS011;25200;53.394;10.414;2022-11-06T12:17:45;5.97;;;2.10;;
39518;SDS011;25200;53.394;10.414;2022-11-06T12:23:23;4.60;;;1.90;;
39518;SDS011;25200;53.394;10.414;2022-11-06T12:25:58;4.13;;;1.60;;
39518;SDS011;25200;53.394;10.414;2022-11-06T12:28:35;6.00;;;1.92;;
39518;SDS011;25200;53.394;10.414;2022-11-06T12:31:37;6.40;;;1.92;;
39518;SDS011;25200;53.394;10.414;2022-11-06T12:34:01;4.57;;;1.75;;
39518;SDS011;25200;53.394;10.414;2022-11-06T12:36:31;3.90;;;1.98;;
39518;SDS011;25200;53.394;10.414;2022-11-06T12:39:05;4.80;;;2.00;;
39518;SDS011;25200;53.394;10.414;2022-11-06T12:41:41;5.03;;;1.98;;
39518;SDS011;25200;53.394;10.414;2022-11-06T12:44:11;6.80;;;1.98;;
39518;SDS011;25200;53.394;10.414;2022-11-06T12:46:39;5.43;;;2.33;;
39518;SDS011;25200;53.394;10.414;2022-11-06T12:57:29;6.22;;;2.17;;
39518;SDS011;25200;53.394;10.414;2022-11-06T13:00:17;6.80;;;2.08;;
39518;SDS011;25200;53.394;10.414;2022-11-06T13:05:39;4.95;;;2.33;;
39518;SDS011;25200;53.394;10.414;2022-11-06T13:11:24;5.90;;;2.90;;
39518;SDS011;25200;53.394;10.414;2022-11-06T13:19:27;5.18;;;2.20;;
39518;SDS011;25200;53.394;10.414;2022-11-06T13:30:04;5.97;;;2.10;;
39518;SDS011;25200;53.394;10.414;2022-11-06T13:32:38;3.88;;;2.00;;
39518;SDS011;25200;53.394;10.414;2022-11-06T13:35:11;5.45;;;2.08;;
39518;SDS011;25200;53.394;10.414;2022-11-06T13:37:40;5.82;;;2.00;;
39518;SDS011;25200;53.394;10.414;2022-11-06T13:45:57;4.60;;;1.80;;
39518;SDS011;25200;53.394;10.414;2022-11-06T13:51:30;6.03;;;1.90;;
39518;SDS011;25200;53.394;10.414;2022-11-06T14:07:41;4.82;;;2.10;;
39518;SDS011;25200;53.394;10.414;2022-11-06T14:13:04;5.28;;;1.98;;
39518;SDS011;25200;53.394;10.414;2022-11-06T14:15:33;6.82;;;1.92;;
39518;SDS011;25200;53.394;10.414;2022-11-06T14:18:02;3.88;;;1.80;;
39518;SDS011;25200;53.394;10.414;2022-11-06T14:22:55;5.45;;;2.10;;
39518;SDS011;25200;53.394;10.414;2022-11-06T14:28:31;5.85;;;2.10;;
39518;SDS011;25200;53.394;10.414;2022-11-06T14:30:58;4.88;;;2.10;;
39518;SDS011;25200;53.394;10.414;2022-11-06T14:38:38;4.47;;;1.85;;
39518;SDS011;25200;53.394;10.414;2022-11-06T14:47:06;6.78;;;2.38;;
39518;SDS011;25200;53.394;10.414;2022-11-06T14:49:43;5.95;;;2.20;;
39518;SDS011;25200;53.394;10.414;2022-11-06T14:52:15;7.85;;;2.55;;
39518;SDS011;25200;53.394;10.414;2022-11-06T14:54:48;5.55;;;2.15;;
39518;SDS011;25200;53.394;10.414;2022-11-06T14:57:43;5.10;;;1.88;;
39518;SDS011;25200;53.394;10.414;2022-11-06T15:00:36;6.20;;;2.10;;
39518;SDS011;25200;53.394;10.414;2022-11-06T15:03:31;5.60;;;2.00;;
39518;SDS011;25200;53.394;10.414;2022-11-06T15:16:47;5.90;;;2.10;;
39518;SDS011;25200;53.394;10.414;2022-11-06T15:27:55;7.82;;;2.58;;
39518;SDS011;25200;53.394;10.414;2022-11-06T15:30:44;5.38;;;2.33;;
39518;SDS011;25200;53.394;10.414;2022-11-06T15:33:13;7.70;;;2.60;;
39518;SDS011;25200;53.394;10.414;2022-11-06T15:35:44;4.47;;;2.08;;
39518;SDS011;25200;53.394;10.414;2022-11-06T15:38:16;5.93;;;2.25;;
39518;SDS011;25200;53.394;10.414;2022-11-06T15:40:45;5.97;;;2.30;;
39518;SDS011;25200;53.394;10.414;2022-11-06T15:43:23;6.20;;;2.40;;
39518;SDS011;25200;53.394;10.414;2022-11-06T15:51:53;9.68;;;3.40;;
39518;SDS011;25200;53.394;10.414;2022-11-06T15:54:39;10.50;;;3.20;;
39518;SDS011;25200;53.394;10.414;2022-11-06T15:59:38;6.90;;;2.58;;
39518;SDS011;25200;53.394;10.414;2022-11-06T16:02:08;5.15;;;2.30;;
39518;SDS011;25200;53.394;10.414;2022-11-06T16:04:54;8.50;;;2.80;;
39518;SDS011;25200;53.394;10.414;2022-11-06T16:07:20;6.93;;;2.80;;
39518;SDS011;25200;53.394;10.414;2022-11-06T16:09:47;6.03;;;2.67;;
39518;SDS011;25200;53.394;10.414;2022-11-06T16:12:16;6.88;;;2.70;;
39518;SDS011;25200;53.394;10.414;2022-11-06T16:14:43;7.88;;;2.67;;
39518;SDS011;25200;53.394;10.414;2022-11-06T16:17:11;8.50;;;3.13;;
39518;SDS011;25200;53.394;10.414;2022-11-06T16:19:48;6.38;;;3.00;;
39518;SDS011;25200;53.394;10.414;2022-11-06T16:22:17;7.45;;;2.55;;
39518;SDS011;25200;53.394;10.414;2022-11-06T16:24:52;7.22;;;2.10;;
39518;SDS011;25200;53.394;10.414;2022-11-06T16:27:21;7.75;;;2.60;;
39518;SDS011;25200;53.394;10.414;2022-11-06T16:29:51;5.35;;;2.20;;
39518;SDS011;25200;53.394;10.414;2022-11-06T16:32:21;6.63;;;2.53;;
39518;SDS011;25200;53.394;10.414;2022-11-06T16:34:50;6.68;;;2.55;;
39518;SDS011;25200;53.394;10.414;2022-11-06T16:39:45;8.15;;;2.25;;
39518;SDS011;25200;53.394;10.414;2022-11-06T16:44:44;6.55;;;2.35;;
39518;SDS011;25200;53.394;10.414;2022-11-06T16:47:18;8.07;;;2.50;;
39518;SDS011;25200;53.394;10.414;2022-11-06T16:49:49;7.37;;;2.60;;
39518;SDS011;25200;53.394;10.414;2022-11-06T16:52:27;5.93;;;2.92;;
39518;SDS011;25200;53.394;10.414;2022-11-06T16:57:42;7.55;;;3.03;;
39518;SDS011;25200;53.394;10.414;2022-11-06T17:02:51;10.93;;;2.88;;
39518;SDS011;25200;53.394;10.414;2022-11-06T17:05:28;11.93;;;3.03;;
39518;SDS011;25200;53.394;10.414;2022-11-06T17:08:16;7.82;;;2.85;;
39518;SDS011;25200;53.394;10.414;2022-11-06T17:10:46;8.00;;;2.85;;
39518;SDS011;25200;53.394;10.414;2022-11-06T17:15:46;8.45;;;3.10;;
39518;SDS011;25200;53.394;10.414;2022-11-06T17:18:24;7.95;;;3.88;;
39518;SDS011;25200;53.394;10.414;2022-11-06T17:20:55;11.55;;;4.72;;
39518;SDS011;25200;53.394;10.414;2022-11-06T17:23:26;7.70;;;3.85;;
39518;SDS011;25200;53.394;10.414;2022-11-06T17:25:54;10.55;;;3.42;;
39518;SDS011;25200;53.394;10.414;2022-11-06T17:28:23;10.00;;;4.03;;
39518;SDS011;25200;53.394;10.414;2022-11-06T17:30:49;9.90;;;4.15;;
39518;SDS011;25200;53.394;10.414;2022-11-06T17:33:15;7.43;;;3.60;;
39518;SDS011;25200;53.394;10.414;2022-11-06T17:35:41;10.25;;;4.05;;
39518;SDS011;25200;53.394;10.414;2022-11-06T17:38:06;6.93;;;3.83;;
39518;SDS011;25200;53.394;10.414;2022-11-06T17:40:38;7.57;;;4.03;;
39518;SDS011;25200;53.394;10.414;2022-11-06T17:43:04;7.72;;;3.30;;
39518;SDS011;25200;53.394;10.414;2022-11-06T17:45:30;8.60;;;3.17;;
39518;SDS011;25200;53.394;10.414;2022-11-06T17:47:56;6.63;;;3.15;;
39518;SDS011;25200;53.394;10.414;2022-11-06T17:50:22;7.82;;;3.55;;
39518;SDS011;25200;53.394;10.414;2022-11-06T17:52:48;10.40;;;3.92;;
39518;SDS011;25200;53.394;10.414;2022-11-06T17:55:13;8.00;;;3.75;;